createdAt,value
2017-10-17T00:01:22.756Z,94.60
2017-10-17T00:06:23.868Z,94.50
2017-10-17T00:11:24.924Z,94.60
2017-10-17T00:16:26.028Z,94.50
2017-10-17T00:21:27.130Z,94.50
2017-10-17T00:26:28.214Z,94.60
2017-10-17T00:31:29.296Z,94.70
2017-10-17T00:36:31.122Z,94.80
2017-10-17T00:41:32.209Z,94.80
2017-10-17T00:46:33.296Z,94.90
2017-10-17T00:51:34.374Z,95.00
2017-10-17T00:56:35.529Z,95.20
2017-10-17T02:12:37.437Z,95.30
2017-10-17T02:17:39.513Z,95.40
2017-10-17T02:22:41.491Z,95.50
2017-10-17T02:27:42.545Z,95.20
2017-10-17T02:32:43.595Z,95.10
2017-10-17T02:37:44.657Z,95.20
2017-10-17T02:42:45.725Z,95.20
2017-10-17T02:47:47.616Z,95.20
2017-10-17T02:52:49.401Z,95.30
2017-10-17T02:57:50.458Z,95.30
2017-10-17T03:02:52.268Z,95.50
2017-10-17T03:07:53.324Z,95.50
2017-10-17T03:12:54.372Z,95.50
2017-10-17T03:17:57.473Z,95.40
2017-10-17T03:22:58.565Z,95.40
2017-10-17T03:28:01.466Z,95.40
2017-10-17T03:33:05.380Z,95.50
2017-10-17T03:38:14.333Z,95.50
2017-10-17T03:43:24.255Z,95.60
2017-10-17T03:48:26.028Z,95.60
2017-10-17T03:53:31.738Z,95.70
2017-10-17T03:58:32.800Z,95.70
2017-10-17T04:03:37.646Z,95.70
2017-10-17T04:08:53.685Z,95.80
2017-10-17T04:14:10.613Z,95.80
2017-10-17T04:35:22.756Z,95.80
2017-10-17T04:40:27.497Z,95.70
2017-10-17T04:45:38.481Z,95.80
2017-10-17T04:50:42.278Z,96.10
2017-10-17T04:55:47.284Z,95.80
2017-10-17T05:00:48.357Z,95.80
2017-10-17T05:05:51.310Z,95.80
2017-10-17T05:26:59.908Z,95.70
2017-10-17T05:32:00.953Z,95.80
2017-10-17T05:37:15.812Z,95.80
2017-10-17T05:42:17.622Z,95.90
2017-10-17T05:47:19.529Z,95.90
2017-10-17T05:52:20.575Z,95.90
2017-10-17T05:57:21.614Z,95.90
2017-10-17T06:02:22.653Z,95.90
2017-10-17T06:07:23.698Z,95.90
2017-10-17T06:12:25.214Z,96.00
2017-10-17T06:17:26.365Z,96.10
2017-10-17T06:22:27.429Z,96.20
2017-10-17T06:27:28.524Z,96.30
2017-10-17T06:32:29.621Z,96.40
2017-10-17T06:37:30.835Z,96.30
2017-10-17T06:42:31.917Z,96.40
2017-10-17T06:47:33.836Z,96.60
2017-10-17T06:52:34.944Z,96.60
2017-10-17T06:57:36.792Z,96.80
2017-10-17T07:02:37.924Z,96.80
2017-10-17T07:07:38.992Z,96.80
2017-10-17T07:12:40.077Z,97.10
2017-10-17T07:17:41.175Z,96.80
2017-10-17T07:22:42.305Z,96.80
2017-10-17T07:27:43.414Z,97.00
2017-10-17T07:32:44.488Z,97.50
2017-10-17T07:37:45.587Z,97.60
2017-10-17T07:42:47.416Z,97.30
2017-10-17T07:47:48.538Z,97.40
2017-10-17T07:52:50.380Z,97.50
2017-10-17T07:57:51.467Z,97.50
2017-10-17T08:02:53.301Z,96.40
2017-10-17T08:07:54.432Z,96.40
2017-10-17T08:12:55.553Z,94.30
2017-10-17T08:17:56.721Z,92.30
2017-10-17T08:22:58.549Z,88.20
2017-10-17T08:27:59.644Z,88.30
2017-10-17T08:33:01.482Z,78.90
2017-10-17T08:38:02.588Z,78.80
2017-10-17T08:43:03.709Z,71.20
2017-10-17T08:48:04.837Z,68.90
2017-10-17T08:53:05.954Z,66.40
2017-10-17T08:58:07.081Z,61.40
2017-10-17T09:03:08.154Z,61.30
2017-10-17T09:08:09.242Z,63.70
2017-10-17T09:13:11.063Z,66.60
2017-10-17T09:18:12.156Z,66.60
2017-10-17T09:23:13.337Z,65.50
2017-10-17T09:28:20.956Z,64.40
2017-10-17T09:33:22.835Z,61.80
2017-10-17T09:38:24.670Z,58.40
2017-10-17T09:43:25.765Z,58.40
2017-10-17T09:48:27.593Z,54.60
2017-10-17T09:53:28.690Z,54.60
2017-10-17T09:58:30.534Z,50.60
2017-10-17T10:03:31.594Z,50.60
2017-10-17T10:08:33.446Z,50.90
2017-10-17T10:13:34.526Z,50.90
2017-10-17T10:18:35.671Z,48.80
2017-10-17T10:23:36.741Z,49.50
2017-10-17T10:28:37.801Z,49.50
2017-10-17T10:33:38.904Z,48.70
2017-10-17T10:38:40.770Z,48.20
2017-10-17T10:43:42.583Z,50.80
2017-10-17T10:48:43.682Z,50.90
2017-10-17T10:53:44.759Z,47.00
2017-10-17T10:58:45.854Z,44.70
2017-10-17T11:03:46.965Z,42.40
2017-10-17T11:08:48.050Z,41.10
2017-10-17T11:13:49.863Z,39.70
2017-10-17T11:18:50.940Z,39.60
2017-10-17T11:23:52.059Z,38.50
2017-10-17T11:28:53.137Z,38.50
2017-10-17T11:33:54.201Z,40.00
2017-10-17T11:38:55.927Z,38.80
2017-10-17T11:43:57.761Z,41.60
2017-10-17T11:48:59.596Z,44.20
2017-10-17T11:54:01.421Z,42.00
2017-10-17T11:59:02.527Z,42.10
2017-10-17T12:04:04.321Z,39.80
2017-10-17T12:09:05.393Z,39.80
2017-10-17T12:14:06.592Z,41.00
2017-10-17T12:19:07.907Z,40.30
2017-10-17T12:24:09.246Z,41.80
2017-10-17T12:29:11.101Z,40.70
2017-10-17T12:34:12.301Z,40.80
2017-10-17T12:39:13.391Z,39.10
2017-10-17T12:44:14.489Z,39.60
2017-10-17T12:49:15.556Z,40.00
2017-10-17T12:54:16.626Z,39.90
2017-10-17T12:59:18.457Z,39.00
2017-10-17T13:04:19.604Z,39.00
2017-10-17T13:09:20.703Z,38.70
2017-10-17T13:14:21.791Z,39.00
2017-10-17T13:19:22.911Z,37.60
2017-10-17T13:24:24.091Z,37.00
2017-10-17T13:29:25.921Z,39.20
2017-10-17T13:34:27.336Z,39.20
2017-10-17T13:39:28.508Z,38.50
2017-10-17T13:44:30.930Z,39.20
2017-10-17T13:49:32.052Z,39.30
2017-10-17T13:54:33.849Z,40.50
2017-10-17T13:59:35.013Z,40.40
2017-10-17T14:04:36.077Z,40.40
2017-10-17T14:09:37.396Z,39.80
2017-10-17T14:14:38.485Z,39.70
2017-10-17T14:19:39.638Z,40.30
2017-10-17T14:24:40.717Z,41.00
2017-10-17T14:29:41.788Z,41.20
2017-10-17T14:34:42.870Z,42.30
2017-10-17T14:39:43.965Z,43.70
2017-10-17T14:44:45.793Z,44.30
2017-10-17T14:49:46.864Z,44.30
2017-10-17T14:54:47.949Z,43.50
2017-10-17T14:59:49.753Z,44.20
2017-10-17T15:04:50.826Z,44.20
2017-10-17T15:09:51.921Z,43.30
2017-10-17T15:14:53.012Z,44.30
2017-10-17T15:19:54.866Z,43.80
2017-10-17T15:24:55.985Z,43.80
2017-10-17T15:29:57.072Z,46.10
2017-10-17T15:34:58.194Z,46.80
2017-10-17T15:39:59.487Z,48.70
2017-10-17T15:45:00.569Z,50.30
2017-10-17T15:50:01.666Z,52.40
2017-10-17T15:55:02.757Z,54.80
2017-10-17T16:00:03.837Z,55.90
2017-10-17T16:05:04.920Z,58.00
2017-10-17T16:10:06.749Z,62.50
2017-10-17T16:15:07.854Z,62.40
2017-10-17T16:20:09.695Z,66.50
2017-10-17T16:25:10.760Z,66.40
2017-10-17T16:30:11.835Z,68.70
2017-10-17T16:35:13.692Z,71.80
2017-10-17T16:40:14.768Z,71.80
2017-10-17T16:45:15.840Z,72.50
2017-10-17T16:50:17.668Z,75.60
2017-10-17T16:55:18.743Z,75.60
2017-10-17T17:00:19.831Z,77.20
2017-10-17T17:05:21.670Z,80.00
2017-10-17T17:10:22.791Z,80.00
2017-10-17T17:15:23.923Z,81.50
2017-10-17T17:20:25.756Z,83.70
2017-10-17T17:25:26.812Z,83.70
2017-10-17T17:30:27.869Z,85.60
2017-10-17T17:35:28.972Z,87.00
2017-10-17T17:40:30.810Z,90.70
2017-10-17T17:45:31.881Z,90.70
2017-10-17T17:50:32.986Z,91.50
2017-10-17T17:55:34.063Z,91.70
2017-10-17T18:00:35.196Z,92.10
2017-10-17T18:05:37.040Z,92.80
2017-10-17T18:10:38.161Z,92.80
2017-10-17T18:15:39.310Z,92.80
2017-10-17T18:20:40.403Z,93.10
2017-10-17T18:25:41.482Z,93.50
2017-10-17T18:30:42.547Z,93.60
2017-10-17T18:35:44.408Z,94.00
2017-10-17T18:40:46.209Z,93.90
2017-10-17T18:45:47.334Z,94.30
2017-10-17T18:50:48.420Z,94.00
2017-10-17T18:55:50.252Z,94.00
2017-10-17T19:00:51.398Z,94.00
2017-10-17T19:05:52.489Z,94.00
2017-10-17T19:10:53.565Z,94.10
2017-10-17T19:15:54.632Z,94.10
2017-10-17T19:20:55.690Z,94.10
2017-10-17T19:25:56.974Z,94.30
2017-10-17T19:30:58.793Z,94.20
2017-10-17T19:35:59.867Z,94.20
2017-10-17T19:41:00.949Z,94.20
2017-10-17T19:46:02.036Z,94.20
2017-10-17T19:51:03.125Z,94.60
2017-10-17T19:56:04.193Z,94.50
2017-10-17T20:01:05.279Z,94.50
2017-10-17T20:06:06.357Z,94.60
2017-10-17T20:11:08.221Z,94.60
2017-10-17T20:16:10.017Z,95.00
2017-10-17T20:21:11.105Z,94.70
2017-10-17T20:26:12.180Z,94.70
2017-10-17T20:31:13.309Z,94.70
2017-10-17T20:36:14.441Z,94.70
2017-10-17T20:41:16.275Z,94.60
2017-10-17T20:46:17.357Z,94.60
2017-10-17T20:51:18.471Z,94.70
2017-10-17T20:56:19.529Z,94.70
2017-10-17T21:01:20.566Z,94.70
2017-10-17T21:06:21.633Z,94.80
2017-10-17T21:11:22.970Z,94.80
2017-10-17T21:16:24.793Z,94.80
2017-10-17T21:21:25.869Z,94.70
2017-10-17T21:26:26.928Z,94.80
2017-10-17T21:31:28.004Z,94.80
2017-10-17T21:36:29.090Z,94.80
2017-10-17T21:41:30.911Z,94.70
2017-10-17T21:46:32.014Z,94.70
2017-10-17T21:51:33.833Z,94.80
2017-10-17T21:56:34.924Z,94.80
2017-10-17T22:01:35.981Z,94.90
2017-10-17T22:06:37.121Z,94.90
2017-10-17T22:11:38.288Z,95.00
2017-10-17T22:16:39.592Z,95.00
2017-10-17T22:21:41.433Z,95.10
2017-10-17T22:26:42.521Z,95.10
2017-10-17T22:31:44.324Z,95.00
2017-10-17T22:36:45.413Z,95.00
2017-10-17T22:41:46.452Z,95.00
2017-10-17T22:46:47.546Z,95.00
2017-10-17T22:51:48.617Z,95.00
2017-10-17T22:56:49.705Z,95.00
2017-10-17T23:01:50.787Z,94.90
2017-10-17T23:06:51.877Z,94.90
2017-10-17T23:11:52.961Z,95.00
2017-10-17T23:17:06.513Z,95.00
2017-10-17T23:22:07.571Z,94.90
2017-10-17T23:27:08.659Z,95.10
2017-10-17T23:32:09.721Z,95.00
2017-10-17T23:37:10.819Z,95.00
2017-10-17T23:42:11.927Z,94.90
2017-10-17T23:47:13.755Z,94.90
2017-10-17T23:52:14.821Z,94.90
2017-10-17T23:57:15.864Z,94.90
